createdAt,value
2024-02-08T00:01:58.080Z,92848.28
2024-02-08T00:04:24.824Z,92821.09
2024-02-08T00:06:51.412Z,92851.84
2024-02-08T00:09:17.986Z,92825.50
2024-02-08T00:11:51.806Z,92846.25
2024-02-08T00:14:18.347Z,92865.41
2024-02-08T00:16:44.891Z,92823.66
2024-02-08T00:19:12.242Z,92850.59
2024-02-08T00:21:51.981Z,92837.44
2024-02-08T00:24:23.527Z,92820.31
2024-02-08T00:26:49.988Z,92817.06
2024-02-08T00:29:16.539Z,92827.09
2024-02-08T00:31:43.476Z,92823.31
2024-02-08T00:34:15.168Z,92830.72
2024-02-08T00:36:46.850Z,92820.72
2024-02-08T00:39:13.311Z,92813.13
2024-02-08T00:41:59.294Z,92834.34
2024-02-08T00:44:27.305Z,92848.31
2024-02-08T00:46:53.814Z,92824.34
2024-02-08T00:49:22.349Z,92806.78
2024-02-08T00:51:50.415Z,92812.38
2024-02-08T00:54:17.702Z,92824.38
2024-02-08T00:57:11.846Z,92832.75
2024-02-08T00:59:39.237Z,92808.78
2024-02-08T01:02:07.506Z,92833.13
2024-02-08T01:04:34.763Z,92800.19
2024-02-08T01:07:13.433Z,92797.41
2024-02-08T01:09:39.885Z,92807.19
2024-02-08T01:12:24.592Z,92779.25
2024-02-08T01:14:52.179Z,92819.97
2024-02-08T01:17:38.922Z,92815.97
2024-02-08T01:20:08.020Z,92806.00
2024-02-08T01:22:39.798Z,92800.81
2024-02-08T01:25:06.425Z,92796.41
2024-02-08T01:27:32.874Z,92786.81
2024-02-08T01:30:11.939Z,92764.47
2024-02-08T01:32:38.511Z,92800.59
2024-02-08T01:35:08.169Z,92831.56
2024-02-08T01:37:39.635Z,92771.25
2024-02-08T01:40:24.085Z,92795.19
2024-02-08T01:42:58.289Z,92801.59
2024-02-08T01:45:39.397Z,92802.38
2024-02-08T01:48:11.933Z,92806.41
2024-02-08T01:50:57.527Z,92819.78
2024-02-08T01:53:29.713Z,92786.00
2024-02-08T01:56:00.973Z,92776.84
2024-02-08T01:58:29.598Z,92818.75
2024-02-08T02:00:57.776Z,92814.19
2024-02-08T02:03:33.091Z,92795.19
2024-02-08T02:06:00.539Z,92792.41
2024-02-08T02:08:27.800Z,92769.25
2024-02-08T02:11:25.862Z,92817.19
2024-02-08T02:13:54.446Z,92778.44
2024-02-08T02:16:24.527Z,92786.59
2024-02-08T02:18:51.922Z,92802.75
2024-02-08T02:21:22.357Z,92768.63
2024-02-08T02:23:49.063Z,92746.06
2024-02-08T02:26:16.453Z,92795.13
2024-02-08T02:29:22.326Z,92788.97
2024-02-08T02:31:50.446Z,92757.66
2024-02-08T02:34:17.514Z,92732.91
2024-02-08T02:36:47.039Z,92769.19
2024-02-08T02:39:14.856Z,92784.34
2024-02-08T02:41:41.478Z,92757.63
2024-02-08T02:44:09.690Z,92778.78
2024-02-08T02:46:39.209Z,92759.63
2024-02-08T02:49:22.641Z,92764.81
2024-02-08T02:51:53.478Z,92787.53
2024-02-08T02:54:23.658Z,92763.63
2024-02-08T02:56:54.374Z,92774.13
2024-02-08T02:59:21.792Z,92787.97
2024-02-08T03:01:51.404Z,92739.69
2024-02-08T03:04:19.215Z,92786.16
2024-02-08T03:06:46.941Z,92787.56
2024-02-08T03:09:16.812Z,92765.16
2024-02-08T03:11:46.888Z,92796.31
2024-02-08T03:14:13.668Z,92772.78
2024-02-08T03:16:42.380Z,92787.97
2024-02-08T03:19:09.385Z,92779.53
2024-02-08T03:21:41.289Z,92770.34
2024-02-08T03:24:17.311Z,92782.69
2024-02-08T03:26:48.112Z,92774.75
2024-02-08T03:29:17.595Z,92745.19
2024-02-08T03:31:48.829Z,92797.13
2024-02-08T03:34:25.918Z,92793.94
2024-02-08T03:37:00.111Z,92754.78
2024-02-08T03:39:31.767Z,92787.56
2024-02-08T03:42:03.575Z,92776.19
2024-02-08T03:44:35.067Z,92778.38
2024-02-08T03:47:09.700Z,92763.13
2024-02-08T03:49:37.328Z,92754.78
2024-02-08T03:52:26.135Z,92798.88
2024-02-08T03:54:55.185Z,92763.53
2024-02-08T03:57:24.983Z,92783.13
2024-02-08T03:59:53.719Z,92778.38
2024-02-08T04:02:23.155Z,92789.53
2024-02-08T04:05:00.923Z,92786.34
2024-02-08T04:07:46.597Z,92804.34
2024-02-08T04:10:32.369Z,92771.94
2024-02-08T04:13:20.973Z,92783.56
2024-02-08T04:16:06.129Z,92780.75
2024-02-08T04:18:51.256Z,92749.22
2024-02-08T04:21:36.442Z,92790.75
2024-02-08T04:24:22.876Z,92783.13
2024-02-08T04:27:14.936Z,92807.53
2024-02-08T04:29:59.699Z,92776.41
2024-02-08T04:32:44.965Z,92766.44
2024-02-08T04:35:36.009Z,92788.38
2024-02-08T04:38:22.340Z,92766.00
2024-02-08T04:41:20.979Z,92783.81
2024-02-08T04:44:06.043Z,92800.78
2024-02-08T04:47:12.820Z,92795.56
2024-02-08T04:49:59.664Z,92779.22
2024-02-08T04:52:44.544Z,92782.00
2024-02-08T04:55:18.528Z,92774.44
2024-02-08T04:57:50.121Z,92757.88
2024-02-08T05:00:17.138Z,92776.81
2024-02-08T05:02:43.636Z,92782.78
2024-02-08T05:05:12.903Z,92759.22
2024-02-08T05:07:39.924Z,92775.09
2024-02-08T05:10:10.023Z,92759.38
2024-02-08T05:12:37.233Z,92783.94
2024-02-08T05:15:03.999Z,92743.22
2024-02-08T05:17:31.141Z,92705.25
2024-02-08T05:19:58.809Z,92767.47
2024-02-08T05:22:41.957Z,92771.50
2024-02-08T05:25:11.472Z,92746.75
2024-02-08T05:27:40.946Z,92758.28
2024-02-08T05:30:09.751Z,92749.91
2024-02-08T05:32:37.555Z,92750.31
2024-02-08T05:35:07.559Z,92728.75
2024-02-08T05:37:34.105Z,92741.47
2024-02-08T05:40:08.216Z,92743.91
2024-02-08T05:42:35.164Z,92725.53
2024-02-08T05:45:20.507Z,92760.13
2024-02-08T05:47:49.729Z,92756.91
2024-02-08T05:50:23.552Z,92718.75
2024-02-08T05:53:10.587Z,92743.06
2024-02-08T05:55:41.194Z,92744.94
2024-02-08T05:58:08.932Z,92707.88
2024-02-08T06:00:53.922Z,92705.47
2024-02-08T06:03:28.979Z,92707.88
2024-02-08T06:06:08.198Z,92714.97
2024-02-08T06:08:40.887Z,92715.97
2024-02-08T06:11:17.560Z,92703.00
2024-02-08T06:13:51.890Z,92709.03
2024-02-08T06:16:27.859Z,92701.81
2024-02-08T06:18:59.130Z,92644.00
2024-02-08T06:21:41.648Z,92688.69
2024-02-08T06:24:24.401Z,92732.13
2024-02-08T06:27:02.510Z,92697.34
2024-02-08T06:29:47.687Z,92720.25
2024-02-08T06:32:30.165Z,92696.09
2024-02-08T06:35:08.777Z,92712.63
2024-02-08T06:37:47.689Z,92729.03
2024-02-08T06:40:38.472Z,92741.38
2024-02-08T06:43:21.063Z,92739.44
2024-02-08T06:45:48.355Z,92715.81
2024-02-08T06:48:37.349Z,92716.28
2024-02-08T06:51:23.635Z,92725.03
2024-02-08T06:54:10.504Z,92740.53
2024-02-08T06:56:59.198Z,92743.50
2024-02-08T06:59:51.233Z,92728.03
2024-02-08T07:02:38.157Z,92747.47
2024-02-08T07:05:23.625Z,92724.50
2024-02-08T07:08:08.564Z,92694.44
2024-02-08T07:10:53.687Z,92709.56
2024-02-08T07:13:38.770Z,92726.50
2024-02-08T07:16:26.347Z,92726.63
2024-02-08T07:19:11.336Z,92707.34
2024-02-08T07:21:57.951Z,92727.84
2024-02-08T07:24:44.136Z,92728.78
2024-02-08T07:27:29.258Z,92713.78
2024-02-08T07:30:14.211Z,92713.66
2024-02-08T07:33:00.456Z,92715.41
2024-02-08T07:35:45.231Z,92707.03
2024-02-08T07:38:11.702Z,92713.41
2024-02-08T07:40:45.013Z,92711.97
2024-02-08T07:43:14.675Z,92718.50
2024-02-08T07:45:45.211Z,92680.88
2024-02-08T07:48:40.041Z,92721.03
2024-02-08T07:51:07.487Z,92718.50
2024-02-08T07:53:46.083Z,92741.44
2024-02-08T07:56:26.576Z,92692.31
2024-02-08T07:58:57.673Z,92664.66
2024-02-08T08:01:33.492Z,92727.78
2024-02-08T08:04:02.440Z,92702.84
2024-02-08T08:06:38.868Z,92699.94
2024-02-08T08:09:21.007Z,92718.66
2024-02-08T08:11:53.894Z,92667.69
2024-02-08T08:14:41.250Z,92722.13
2024-02-08T08:17:09.412Z,92703.38
2024-02-08T08:19:46.243Z,92700.88
2024-02-08T08:22:40.854Z,92712.03
2024-02-08T08:25:13.607Z,92706.28
2024-02-08T08:27:54.557Z,92682.94
2024-02-08T08:30:33.167Z,92687.81
2024-02-08T08:33:01.603Z,92682.75
2024-02-08T08:35:34.913Z,92699.72
2024-02-08T08:38:21.579Z,92694.69
2024-02-08T08:41:01.849Z,92724.72
2024-02-08T08:43:32.913Z,92703.53
2024-02-08T08:46:02.071Z,92688.47
2024-02-08T08:48:33.301Z,92694.81
2024-02-08T08:51:11.993Z,92697.03
2024-02-08T08:53:44.688Z,92677.38
2024-02-08T08:56:12.474Z,92676.44
2024-02-08T08:58:43.353Z,92667.38
2024-02-08T09:01:16.775Z,92710.09
2024-02-08T09:03:45.184Z,92695.78
2024-02-08T09:06:15.273Z,92694.19
2024-02-08T09:08:56.274Z,92672.50
2024-02-08T09:11:27.050Z,92706.59
2024-02-08T09:13:54.509Z,92712.03
2024-02-08T09:16:25.275Z,92687.28
2024-02-08T09:19:03.760Z,92705.13
2024-02-08T09:21:36.586Z,92686.69
2024-02-08T09:24:05.163Z,92643.06
2024-02-08T09:26:53.424Z,92688.06
2024-02-08T09:29:30.023Z,92697.47
2024-02-08T09:32:15.980Z,92695.22
2024-02-08T09:34:42.930Z,92714.88
2024-02-08T09:37:10.212Z,92689.66
2024-02-08T09:40:10.408Z,92723.38
2024-02-08T09:42:39.040Z,92693.03
2024-02-08T09:45:19.719Z,92702.94
2024-02-08T09:47:54.081Z,92728.50
2024-02-08T09:50:32.373Z,92705.09
2024-02-08T09:53:08.666Z,92709.19
2024-02-08T09:55:35.309Z,92726.78
2024-02-08T09:58:11.619Z,92721.22
2024-02-08T10:00:56.632Z,92720.66
2024-02-08T10:03:36.906Z,92720.28
2024-02-08T10:06:14.263Z,92688.69
2024-02-08T10:08:55.280Z,92681.78
2024-02-08T10:11:25.582Z,92697.31
2024-02-08T10:14:03.210Z,92671.66
2024-02-08T10:16:32.213Z,92701.44
2024-02-08T10:19:04.982Z,92715.53
2024-02-08T10:21:37.361Z,92689.59
2024-02-08T10:24:24.933Z,92687.22
2024-02-08T10:26:51.449Z,92686.47
2024-02-08T10:29:26.242Z,92691.03
2024-02-08T10:31:56.010Z,92696.22
2024-02-08T10:34:34.887Z,92707.13
2024-02-08T10:37:05.233Z,92650.34
2024-02-08T10:39:33.465Z,92678.88
2024-02-08T10:42:17.069Z,92706.94
2024-02-08T10:44:45.687Z,92691.69
2024-02-08T10:47:15.480Z,92683.19
2024-02-08T10:49:46.790Z,92689.56
2024-02-08T10:52:21.631Z,92672.16
2024-02-08T10:54:56.475Z,92679.31
2024-02-08T10:57:39.175Z,92680.56
2024-02-08T11:00:28.288Z,92681.94
2024-02-08T11:03:10.166Z,92692.41
2024-02-08T11:05:50.594Z,92670.91
2024-02-08T11:08:26.161Z,92677.38
2024-02-08T11:10:59.646Z,92690.56
2024-02-08T11:13:30.766Z,92660.00
2024-02-08T11:16:20.756Z,92666.47
2024-02-08T11:18:54.404Z,92672.72
2024-02-08T11:21:51.095Z,92689.31
2024-02-08T11:24:31.189Z,92686.94
2024-02-08T11:27:02.603Z,92689.81
2024-02-08T11:29:48.229Z,92676.47
2024-02-08T11:32:18.052Z,92657.94
2024-02-08T11:34:46.871Z,92649.16
2024-02-08T11:37:17.588Z,92638.78
2024-02-08T11:39:48.952Z,92670.09
2024-02-08T11:42:18.169Z,92637.72
2024-02-08T11:44:46.132Z,92634.00
2024-02-08T11:47:19.714Z,92652.63
2024-02-08T11:50:04.750Z,92656.72
2024-02-08T11:52:33.338Z,92632.44
2024-02-08T11:55:13.543Z,92667.28
2024-02-08T11:57:42.298Z,92660.00
2024-02-08T12:00:17.349Z,92638.34
2024-02-08T12:02:58.404Z,92633.81
2024-02-08T12:05:30.147Z,92625.16
2024-02-08T12:08:18.727Z,92655.13
2024-02-08T12:10:49.231Z,92613.91
2024-02-08T12:13:16.483Z,92633.50
2024-02-08T12:15:56.515Z,92626.38
2024-02-08T12:18:25.342Z,92578.38
2024-02-08T12:21:12.049Z,92623.66
2024-02-08T12:23:41.713Z,92622.63
2024-02-08T12:26:11.551Z,92619.03
2024-02-08T12:28:42.885Z,92629.91
2024-02-08T12:31:19.135Z,92543.78
2024-02-08T12:33:59.961Z,92465.97
2024-02-08T12:36:32.871Z,92651.16
2024-02-08T12:39:07.076Z,92516.88
2024-02-08T12:41:39.549Z,92419.09
2024-02-08T12:44:06.286Z,92600.88
2024-02-08T12:46:33.232Z,92621.75
2024-02-08T12:49:01.099Z,92429.22
2024-02-08T12:51:27.675Z,92481.19
2024-02-08T12:53:58.725Z,92627.34
2024-02-08T12:56:48.256Z,92619.03
2024-02-08T12:59:19.388Z,92596.88
2024-02-08T13:01:48.846Z,92572.94
2024-02-08T13:04:17.559Z,92609.94
2024-02-08T13:07:08.921Z,92585.66
2024-02-08T13:09:38.857Z,92563.50
2024-02-08T13:12:21.195Z,92593.59
2024-02-08T13:14:50.846Z,92586.44
2024-02-08T13:17:22.061Z,92541.63
2024-02-08T13:19:49.824Z,92562.06
2024-02-08T13:22:25.034Z,92536.75
2024-02-08T13:24:53.640Z,92563.88
2024-02-08T13:27:26.365Z,92572.72
2024-02-08T13:29:58.988Z,92522.81
2024-02-08T13:32:32.413Z,92567.50
2024-02-08T13:35:02.081Z,92554.56
2024-02-08T13:37:29.035Z,92504.66
2024-02-08T13:40:08.754Z,92518.94
2024-02-08T13:42:48.449Z,92499.19
2024-02-08T13:45:29.793Z,92526.31
2024-02-08T13:48:02.222Z,92550.72
2024-02-08T13:50:31.816Z,92437.41
2024-02-08T13:53:02.523Z,92526.66
2024-02-08T13:58:01.959Z,92465.94
2024-02-08T14:00:29.003Z,92478.97
2024-02-08T14:02:55.947Z,92537.13
2024-02-08T14:05:42.888Z,92554.97
2024-02-08T14:08:18.943Z,92534.06
2024-02-08T14:10:46.148Z,92486.91
2024-02-08T14:13:16.240Z,92508.66
2024-02-08T14:15:48.363Z,92503.00
2024-02-08T14:18:32.990Z,92533.44
2024-02-08T14:21:02.757Z,92508.94
2024-02-08T14:23:31.540Z,92520.69
2024-02-08T14:26:20.403Z,92497.31
2024-02-08T14:28:50.511Z,92520.69
2024-02-08T14:31:28.399Z,92474.91
2024-02-08T14:33:56.671Z,92493.88
2024-02-08T14:36:26.988Z,92454.06
2024-02-08T14:39:26.802Z,92469.13
2024-02-08T14:42:12.464Z,92504.03
2024-02-08T14:44:59.102Z,92432.75
2024-02-08T14:47:40.297Z,92258.88
2024-02-08T14:50:46.395Z,92411.84
2024-02-08T14:53:13.008Z,92430.22
2024-02-08T14:55:46.349Z,92388.63
2024-02-08T14:58:32.648Z,92448.22
2024-02-08T15:01:31.718Z,92445.59
2024-02-08T15:04:00.007Z,92442.44
2024-02-08T15:06:36.849Z,92432.44
2024-02-08T15:09:29.656Z,92433.84
2024-02-08T15:12:01.301Z,92413.88
2024-02-08T15:14:38.021Z,92409.91
2024-02-08T15:17:09.095Z,92402.31
2024-02-08T15:19:36.694Z,92386.59
2024-02-08T15:22:19.827Z,92355.88
2024-02-08T15:24:51.238Z,92372.09
2024-02-08T15:27:32.624Z,92373.66
2024-02-08T15:30:12.094Z,92354.75
2024-02-08T15:32:48.209Z,92379.00
2024-02-08T15:35:25.570Z,92375.59
2024-02-08T15:38:10.860Z,92369.81
2024-02-08T15:40:44.790Z,92386.38
2024-02-08T15:43:19.196Z,92360.41
2024-02-08T15:46:05.272Z,92399.59
2024-02-08T15:48:35.482Z,92377.59
2024-02-08T15:51:13.514Z,92407.75
2024-02-08T15:53:51.077Z,92384.41
2024-02-08T15:56:21.628Z,92363.78
2024-02-08T15:59:04.336Z,92394.69
2024-02-08T16:01:51.866Z,92383.59
2024-02-08T16:04:37.950Z,92350.16
2024-02-08T16:07:13.946Z,92385.28
2024-02-08T16:09:40.707Z,92363.94
2024-02-08T16:12:15.354Z,92368.09
2024-02-08T16:14:45.319Z,92369.78
2024-02-08T16:17:31.472Z,92357.03
2024-02-08T16:19:59.580Z,92366.13
2024-02-08T16:22:30.552Z,92340.31
2024-02-08T16:25:03.694Z,92341.47
2024-02-08T16:27:30.654Z,92346.13
2024-02-08T16:30:08.580Z,92346.53
2024-02-08T16:32:39.882Z,92352.53
2024-02-08T16:35:30.078Z,92345.31
2024-02-08T16:40:53.009Z,92327.75
2024-02-08T16:43:29.612Z,92311.06
2024-02-08T16:46:06.681Z,92318.16
2024-02-08T16:48:38.074Z,92324.94
2024-02-08T16:51:11.373Z,92336.09
2024-02-08T16:53:41.069Z,92303.94
2024-02-08T16:56:11.644Z,92300.06
2024-02-08T16:58:44.865Z,92301.94
2024-02-08T17:01:31.023Z,92309.00
2024-02-08T17:04:10.214Z,92300.44
2024-02-08T17:06:59.361Z,92289.34
2024-02-08T17:09:26.145Z,92287.78
2024-02-08T17:12:05.915Z,92290.94
2024-02-08T17:14:37.845Z,92299.13
2024-02-08T17:17:15.449Z,92311.66
2024-02-08T17:19:53.179Z,92275.09
2024-02-08T17:22:23.881Z,92318.50
2024-02-08T17:25:14.760Z,92287.16
2024-02-08T17:28:04.311Z,92297.63
2024-02-08T17:30:52.904Z,92272.13
2024-02-08T17:33:19.569Z,92263.63
2024-02-08T17:35:47.272Z,92262.97
2024-02-08T17:38:21.292Z,92287.16
2024-02-08T17:40:51.400Z,92264.00
2024-02-08T17:43:19.389Z,92285.53
2024-02-08T17:45:57.364Z,92279.31
2024-02-08T17:48:29.803Z,92264.84
2024-02-08T17:51:08.616Z,92253.38
2024-02-08T17:53:38.809Z,92262.44
2024-02-08T17:56:11.710Z,92240.91
2024-02-08T17:58:45.488Z,92251.94
2024-02-08T18:01:17.354Z,92231.22
2024-02-08T18:03:47.971Z,92244.91
2024-02-08T18:06:17.853Z,92247.34
2024-02-08T18:08:47.899Z,92225.94
2024-02-08T18:11:17.324Z,92226.16
2024-02-08T18:13:44.206Z,92233.91
2024-02-08T18:16:12.865Z,92226.09
2024-02-08T18:18:41.342Z,92246.38
2024-02-08T18:21:15.007Z,92220.25
2024-02-08T18:23:46.478Z,92246.34
2024-02-08T18:26:29.072Z,92235.31
2024-02-08T18:28:57.670Z,92218.66
2024-02-08T18:31:26.876Z,92196.00
2024-02-08T18:33:58.484Z,92201.06
2024-02-08T18:36:26.113Z,92202.81
2024-02-08T18:38:53.864Z,92195.38
2024-02-08T18:41:23.331Z,92199.63
2024-02-08T18:43:52.792Z,92190.41
2024-02-08T18:46:20.660Z,92185.66
2024-02-08T18:48:54.669Z,92177.28
2024-02-08T18:51:35.401Z,92172.25
2024-02-08T18:54:01.926Z,92169.09
2024-02-08T18:56:32.705Z,92164.34
2024-02-08T18:59:06.625Z,92168.00
2024-02-08T19:01:33.216Z,92158.34
2024-02-08T19:04:04.866Z,92150.59
2024-02-08T19:06:32.589Z,92145.81
2024-02-08T19:08:59.121Z,92139.00
2024-02-08T19:11:25.567Z,92126.03
2024-02-08T19:13:53.025Z,92130.53
2024-02-08T19:16:27.735Z,92153.75
2024-02-08T19:19:01.806Z,92116.38
2024-02-08T19:21:30.552Z,92138.22
2024-02-08T19:24:03.337Z,92140.59
2024-02-08T19:26:36.759Z,92120.56
2024-02-08T19:29:07.933Z,92115.28
2024-02-08T19:31:38.543Z,92128.06
2024-02-08T19:34:09.741Z,92124.75
2024-02-08T19:36:41.630Z,92121.81
2024-02-08T19:39:42.615Z,92128.06
2024-02-08T19:42:19.567Z,92107.63
2024-02-08T19:44:54.513Z,92109.50
2024-02-08T19:47:29.800Z,92112.59
2024-02-08T19:50:02.970Z,92091.06
2024-02-08T19:52:39.742Z,92103.09
2024-02-08T19:55:22.209Z,92101.50
2024-02-08T19:57:50.318Z,92119.22
2024-02-08T20:00:23.047Z,92105.78
2024-02-08T20:02:53.402Z,92091.53
2024-02-08T20:05:26.064Z,92087.91
2024-02-08T20:07:52.929Z,92092.34
2024-02-08T20:10:20.488Z,92105.47
2024-02-08T20:12:53.452Z,92083.03
2024-02-08T20:15:22.468Z,92085.94
2024-02-08T20:17:59.955Z,92089.78
2024-02-08T20:20:29.318Z,92090.22
2024-02-08T20:22:56.934Z,92081.56
2024-02-08T20:25:28.577Z,92065.56
2024-02-08T20:27:58.997Z,92089.31
2024-02-08T20:30:26.319Z,92070.31
2024-02-08T20:33:02.621Z,92070.38
2024-02-08T20:35:32.840Z,92064.28
2024-02-08T20:38:00.918Z,92064.63
2024-02-08T20:40:29.316Z,92059.41
2024-02-08T20:42:56.429Z,92073.47
2024-02-08T20:45:33.878Z,92072.75
2024-02-08T20:48:09.046Z,92054.09
2024-02-08T20:50:41.362Z,92056.66
2024-02-08T20:53:16.090Z,92047.78
2024-02-08T20:55:44.497Z,92057.75
2024-02-08T20:58:13.188Z,92078.34
2024-02-08T21:00:47.035Z,92068.69
2024-02-08T21:03:15.614Z,92076.75
2024-02-08T21:05:49.725Z,92065.09
2024-02-08T21:08:17.968Z,92080.97
2024-02-08T21:10:49.035Z,92041.31
2024-02-08T21:13:18.321Z,92080.31
2024-02-08T21:15:45.276Z,92078.88
2024-02-08T21:18:21.781Z,92074.44
2024-02-08T21:20:50.566Z,92094.97
2024-02-08T21:23:19.245Z,92076.44
2024-02-08T21:25:47.358Z,92099.97
2024-02-08T21:28:15.003Z,92092.72
2024-02-08T21:30:48.400Z,92090.66
2024-02-08T21:33:15.354Z,92072.81
2024-02-08T21:35:48.578Z,92105.47
2024-02-08T21:38:17.156Z,92088.88
2024-02-08T21:40:46.915Z,92089.97
2024-02-08T21:43:17.543Z,92086.41
2024-02-08T21:45:47.801Z,92095.22
2024-02-08T21:48:19.465Z,92088.09
2024-02-08T21:50:49.998Z,92091.19
2024-02-08T21:53:17.793Z,92064.97
2024-02-08T21:55:44.648Z,92084.16
2024-02-08T21:58:16.696Z,92089.56
2024-02-08T22:00:43.777Z,92069.38
2024-02-08T22:03:10.401Z,92077.41
2024-02-08T22:05:37.508Z,91974.25
2024-02-08T22:08:05.057Z,92091.13
2024-02-08T22:10:31.913Z,92086.25
2024-02-08T22:13:03.265Z,92088.94
2024-02-08T22:15:33.563Z,92086.00
2024-02-08T22:18:03.083Z,92097.75
2024-02-08T22:20:29.882Z,92086.03
2024-02-08T22:22:56.601Z,92077.88
2024-02-08T22:25:24.669Z,92087.81
2024-02-08T22:27:51.741Z,92075.50
2024-02-08T22:30:19.595Z,92087.59
2024-02-08T22:32:47.551Z,92088.75
2024-02-08T22:35:16.963Z,92085.56
2024-02-08T22:37:44.069Z,92068.84
2024-02-08T22:40:11.185Z,92058.78
2024-02-08T22:42:37.817Z,92053.13
2024-02-08T22:45:12.728Z,92057.09
2024-02-08T22:47:40.172Z,92064.75
2024-02-08T22:50:16.335Z,92052.84
2024-02-08T22:52:47.781Z,92065.44
2024-02-08T22:55:18.080Z,92065.19
2024-02-08T22:57:46.160Z,92059.00
2024-02-08T23:00:26.515Z,92061.84
2024-02-08T23:02:57.572Z,92046.47
2024-02-08T23:05:28.505Z,92049.06
2024-02-08T23:07:55.362Z,92057.09
2024-02-08T23:10:22.032Z,92044.09
2024-02-08T23:12:49.350Z,92055.03
2024-02-08T23:15:17.244Z,92067.47
2024-02-08T23:17:44.195Z,92064.09
2024-02-08T23:20:15.405Z,92058.44
2024-02-08T23:22:42.121Z,92068.41
2024-02-08T23:25:11.861Z,92057.31
2024-02-08T23:27:38.946Z,92063.66
2024-02-08T23:30:10.740Z,92060.03
2024-02-08T23:32:39.922Z,92076.44
2024-02-08T23:35:13.733Z,92066.59
2024-02-08T23:37:45.996Z,92059.34
2024-02-08T23:40:15.784Z,92058.22
2024-02-08T23:42:43.322Z,92060.03
2024-02-08T23:45:13.675Z,92060.94
2024-02-08T23:47:40.996Z,92045.00
2024-02-08T23:50:10.532Z,92040.94
2024-02-08T23:52:37.751Z,92029.06
2024-02-08T23:55:08.662Z,92035.16
2024-02-08T23:57:38.423Z,92013.66
